sensor_id;sensor_type;location;lat;lon;timestamp;pressure;altitude;pressure_sealevel;temperature;humidity
43824;BME280;29470;53.550;9.926;2022-09-09T00:04:41;100409.19;;;14.99;100.00
43824;BME280;29470;53.550;9.926;2022-09-09T00:09:45;100407.59;;;15.03;100.00
43824;BME280;29470;53.550;9.926;2022-09-09T00:14:54;100405.13;;;15.06;100.00
43824;BME280;29470;53.550;9.926;2022-09-09T00:20:02;100410.53;;;15.11;100.00
43824;BME280;29470;53.550;9.926;2022-09-09T00:25:19;100413.56;;;15.20;100.00
43824;BME280;29470;53.550;9.926;2022-09-09T00:30:28;100414.81;;;15.28;100.00
43824;BME280;29470;53.550;9.926;2022-09-09T00:35:37;100404.59;;;15.33;100.00
43824;BME280;29470;53.550;9.926;2022-09-09T00:40:48;100404.38;;;15.48;100.00
43824;BME280;29470;53.550;9.926;2022-09-09T00:46:14;100399.16;;;15.48;100.00
43824;BME280;29470;53.550;9.926;2022-09-09T00:51:28;100393.91;;;15.46;100.00
43824;BME280;29470;53.550;9.926;2022-09-09T00:56:36;100405.28;;;15.49;100.00
43824;BME280;29470;53.550;9.926;2022-09-09T01:01:45;100401.34;;;15.58;100.00
43824;BME280;29470;53.550;9.926;2022-09-09T01:06:52;100404.63;;;15.54;100.00
43824;BME280;29470;53.550;9.926;2022-09-09T01:12:03;100398.06;;;15.43;100.00
43824;BME280;29470;53.550;9.926;2022-09-09T01:17:15;100392.59;;;15.37;100.00
43824;BME280;29470;53.550;9.926;2022-09-09T01:22:33;100406.94;;;15.27;100.00
43824;BME280;29470;53.550;9.926;2022-09-09T01:27:43;100404.88;;;15.20;100.00
43824;BME280;29470;53.550;9.926;2022-09-09T01:32:49;100406.56;;;15.19;100.00
43824;BME280;29470;53.550;9.926;2022-09-09T01:37:52;100395.00;;;15.12;100.00
43824;BME280;29470;53.550;9.926;2022-09-09T01:42:59;100383.25;;;15.22;100.00
43824;BME280;29470;53.550;9.926;2022-09-09T01:48:04;100396.84;;;15.15;100.00
43824;BME280;29470;53.550;9.926;2022-09-09T01:53:17;100396.91;;;15.16;100.00
43824;BME280;29470;53.550;9.926;2022-09-09T01:58:32;100396.91;;;15.16;100.00
43824;BME280;29470;53.550;9.926;2022-09-09T02:03:37;100385.81;;;15.01;100.00
43824;BME280;29470;53.550;9.926;2022-09-09T02:08:49;100391.63;;;14.95;100.00
43824;BME280;29470;53.550;9.926;2022-09-09T02:13:59;100397.44;;;14.90;100.00
43824;BME280;29470;53.550;9.926;2022-09-09T02:19:06;100396.19;;;14.81;100.00
43824;BME280;29470;53.550;9.926;2022-09-09T02:24:31;100394.56;;;14.83;100.00
43824;BME280;29470;53.550;9.926;2022-09-09T02:29:52;100392.72;;;14.81;100.00
43824;BME280;29470;53.550;9.926;2022-09-09T02:35:09;100394.50;;;14.82;100.00
43824;BME280;29470;53.550;9.926;2022-09-09T02:40:16;100384.47;;;14.71;100.00
43824;BME280;29470;53.550;9.926;2022-09-09T02:45:34;100377.63;;;14.73;100.00
43824;BME280;29470;53.550;9.926;2022-09-09T02:50:43;100390.91;;;14.62;100.00
43824;BME280;29470;53.550;9.926;2022-09-09T02:55:55;100387.00;;;14.70;100.00
43824;BME280;29470;53.550;9.926;2022-09-09T03:01:01;100392.78;;;14.64;100.00
43824;BME280;29470;53.550;9.926;2022-09-09T03:06:05;100388.97;;;14.57;100.00
43824;BME280;29470;53.550;9.926;2022-09-09T03:11:08;100393.00;;;14.51;100.00
43824;BME280;29470;53.550;9.926;2022-09-09T03:16:13;100397.97;;;14.46;100.00
43824;BME280;29470;53.550;9.926;2022-09-09T03:21:21;100398.75;;;14.43;100.00
43824;BME280;29470;53.550;9.926;2022-09-09T03:26:24;100395.22;;;14.43;100.00
43824;BME280;29470;53.550;9.926;2022-09-09T03:31:28;100392.63;;;14.43;100.00
43824;BME280;29470;53.550;9.926;2022-09-09T03:36:33;100388.75;;;14.35;100.00
43824;BME280;29470;53.550;9.926;2022-09-09T03:41:36;100394.78;;;14.34;100.00
43824;BME280;29470;53.550;9.926;2022-09-09T03:46:42;100399.03;;;14.32;100.00
43824;BME280;29470;53.550;9.926;2022-09-09T03:51:45;100406.00;;;14.33;100.00
43824;BME280;29470;53.550;9.926;2022-09-09T03:56:48;100400.66;;;14.29;100.00
43824;BME280;29470;53.550;9.926;2022-09-09T04:01:53;100409.28;;;14.28;100.00
43824;BME280;29470;53.550;9.926;2022-09-09T04:06:56;100410.91;;;14.26;100.00
43824;BME280;29470;53.550;9.926;2022-09-09T04:11:59;100420.13;;;14.20;100.00
43824;BME280;29470;53.550;9.926;2022-09-09T04:17:05;100418.09;;;14.14;100.00
43824;BME280;29470;53.550;9.926;2022-09-09T04:22:08;100417.03;;;14.09;100.00
43824;BME280;29470;53.550;9.926;2022-09-09T04:27:11;100419.53;;;14.07;100.00
43824;BME280;29470;53.550;9.926;2022-09-09T04:32:16;100420.13;;;14.02;100.00
43824;BME280;29470;53.550;9.926;2022-09-09T04:37:20;100423.31;;;14.14;100.00
43824;BME280;29470;53.550;9.926;2022-09-09T04:42:23;100424.44;;;14.19;100.00
43824;BME280;29470;53.550;9.926;2022-09-09T04:47:28;100428.69;;;14.35;100.00
43824;BME280;29470;53.550;9.926;2022-09-09T04:52:33;100433.25;;;14.39;100.00
43824;BME280;29470;53.550;9.926;2022-09-09T04:57:36;100435.16;;;14.43;100.00
43824;BME280;29470;53.550;9.926;2022-09-09T05:02:41;100435.22;;;14.45;100.00
43824;BME280;29470;53.550;9.926;2022-09-09T05:07:44;100436.13;;;14.46;100.00
43824;BME280;29470;53.550;9.926;2022-09-09T05:12:52;100437.81;;;14.45;100.00
43824;BME280;29470;53.550;9.926;2022-09-09T05:18:01;100435.91;;;14.41;100.00
43824;BME280;29470;53.550;9.926;2022-09-09T05:23:06;100437.78;;;14.43;100.00
43824;BME280;29470;53.550;9.926;2022-09-09T05:28:09;100444.97;;;14.49;100.00
43824;BME280;29470;53.550;9.926;2022-09-09T05:33:14;100443.44;;;14.53;100.00
43824;BME280;29470;53.550;9.926;2022-09-09T05:38:17;100453.31;;;14.78;100.00
43824;BME280;29470;53.550;9.926;2022-09-09T05:43:22;100459.88;;;14.70;100.00
43824;BME280;29470;53.550;9.926;2022-09-09T05:48:27;100461.28;;;14.99;100.00
43824;BME280;29470;53.550;9.926;2022-09-09T05:53:31;100470.47;;;15.30;100.00
43824;BME280;29470;53.550;9.926;2022-09-09T05:58:36;100460.97;;;15.70;100.00
43824;BME280;29470;53.550;9.926;2022-09-09T06:03:45;100466.44;;;15.96;100.00
43824;BME280;29470;53.550;9.926;2022-09-09T06:08:51;100470.38;;;16.08;100.00
43824;BME280;29470;53.550;9.926;2022-09-09T06:13:55;100484.38;;;16.10;100.00
43824;BME280;29470;53.550;9.926;2022-09-09T06:19:00;100484.38;;;16.10;100.00
43824;BME280;29470;53.550;9.926;2022-09-09T06:24:05;100486.69;;;16.02;100.00
43824;BME280;29470;53.550;9.926;2022-09-09T06:29:09;100480.81;;;16.08;100.00
43824;BME280;29470;53.550;9.926;2022-09-09T06:34:14;100485.47;;;16.15;100.00
43824;BME280;29470;53.550;9.926;2022-09-09T06:39:21;100484.22;;;16.47;100.00
43824;BME280;29470;53.550;9.926;2022-09-09T06:44:24;100488.84;;;16.76;100.00
43824;BME280;29470;53.550;9.926;2022-09-09T06:49:34;100484.69;;;16.81;100.00
43824;BME280;29470;53.550;9.926;2022-09-09T06:54:41;100482.25;;;17.07;100.00
43824;BME280;29470;53.550;9.926;2022-09-09T06:59:44;100482.28;;;18.56;95.83
43824;BME280;29470;53.550;9.926;2022-09-09T07:04:48;100484.88;;;21.13;78.44
43824;BME280;29470;53.550;9.926;2022-09-09T07:09:52;100479.22;;;23.46;65.29
43824;BME280;29470;53.550;9.926;2022-09-09T07:14:55;100485.06;;;22.11;67.57
43824;BME280;29470;53.550;9.926;2022-09-09T07:20:00;100489.22;;;20.74;73.27
43824;BME280;29470;53.550;9.926;2022-09-09T07:25:07;100497.31;;;20.11;77.32
43824;BME280;29470;53.550;9.926;2022-09-09T07:30:11;100490.75;;;20.64;77.30
43824;BME280;29470;53.550;9.926;2022-09-09T07:35:25;100484.38;;;22.74;67.64
43824;BME280;29470;53.550;9.926;2022-09-09T07:40:28;100494.63;;;21.60;70.14
43824;BME280;29470;53.550;9.926;2022-09-09T07:45:33;100502.13;;;20.28;74.26
43824;BME280;29470;53.550;9.926;2022-09-09T07:50:38;100509.19;;;19.97;76.75
43824;BME280;29470;53.550;9.926;2022-09-09T07:55:43;100515.72;;;19.20;83.33
43824;BME280;29470;53.550;9.926;2022-09-09T08:00:46;100517.44;;;18.92;82.67
43824;BME280;29470;53.550;9.926;2022-09-09T08:05:50;100518.44;;;18.95;81.81
43824;BME280;29470;53.550;9.926;2022-09-09T08:10:53;100521.69;;;19.45;82.41
43824;BME280;29470;53.550;9.926;2022-09-09T08:16:09;100520.69;;;20.02;77.97
43824;BME280;29470;53.550;9.926;2022-09-09T08:21:15;100524.41;;;20.09;77.89
43824;BME280;29470;53.550;9.926;2022-09-09T08:26:21;100527.78;;;19.74;75.10
43824;BME280;29470;53.550;9.926;2022-09-09T08:31:27;100537.03;;;19.92;77.91
43824;BME280;29470;53.550;9.926;2022-09-09T08:36:34;100540.06;;;20.39;74.89
43824;BME280;29470;53.550;9.926;2022-09-09T08:41:50;100531.69;;;20.21;75.01
43824;BME280;29470;53.550;9.926;2022-09-09T08:47:03;100543.06;;;19.28;77.99
43824;BME280;29470;53.550;9.926;2022-09-09T08:52:19;100542.56;;;19.70;76.71
43824;BME280;29470;53.550;9.926;2022-09-09T08:57:26;100536.50;;;20.04;78.58
43824;BME280;29470;53.550;9.926;2022-09-09T09:02:34;100540.63;;;20.98;73.29
43824;BME280;29470;53.550;9.926;2022-09-09T09:07:50;100551.84;;;21.29;71.57
43824;BME280;29470;53.550;9.926;2022-09-09T09:13:03;100543.56;;;21.93;67.36
43824;BME280;29470;53.550;9.926;2022-09-09T09:18:10;100542.47;;;21.83;68.17
43824;BME280;29470;53.550;9.926;2022-09-09T09:23:21;100545.16;;;21.85;67.35
43824;BME280;29470;53.550;9.926;2022-09-09T09:28:29;100547.63;;;21.77;65.94
43824;BME280;29470;53.550;9.926;2022-09-09T09:33:45;100545.66;;;21.67;67.31
43824;BME280;29470;53.550;9.926;2022-09-09T09:38:55;100549.94;;;22.04;65.63
43824;BME280;29470;53.550;9.926;2022-09-09T09:44:25;100547.28;;;21.61;65.86
43824;BME280;29470;53.550;9.926;2022-09-09T09:49:30;100550.50;;;21.48;66.64
43824;BME280;29470;53.550;9.926;2022-09-09T09:54:39;100548.59;;;21.41;67.59
43824;BME280;29470;53.550;9.926;2022-09-09T09:59:44;100550.44;;;21.05;69.57
43824;BME280;29470;53.550;9.926;2022-09-09T10:05:02;100555.88;;;21.13;68.59
43824;BME280;29470;53.550;9.926;2022-09-09T10:10:13;100549.72;;;20.75;69.75
43824;BME280;29470;53.550;9.926;2022-09-09T10:15:29;100549.81;;;20.79;70.83
43824;BME280;29470;53.550;9.926;2022-09-09T10:20:40;100545.47;;;21.17;69.54
43824;BME280;29470;53.550;9.926;2022-09-09T10:26:01;100546.38;;;20.81;70.14
43824;BME280;29470;53.550;9.926;2022-09-09T10:31:16;100539.50;;;21.26;70.10
43824;BME280;29470;53.550;9.926;2022-09-09T10:36:23;100540.09;;;21.13;71.37
43824;BME280;29470;53.550;9.926;2022-09-09T10:41:40;100535.00;;;21.19;70.31
43824;BME280;29470;53.550;9.926;2022-09-09T10:46:55;100533.44;;;20.90;71.06
43824;BME280;29470;53.550;9.926;2022-09-09T10:52:08;100542.75;;;21.14;70.06
43824;BME280;29470;53.550;9.926;2022-09-09T10:57:25;100542.59;;;21.46;67.86
43824;BME280;29470;53.550;9.926;2022-09-09T11:02:33;100537.47;;;21.54;66.80
43824;BME280;29470;53.550;9.926;2022-09-09T11:07:41;100527.00;;;21.56;66.14
43824;BME280;29470;53.550;9.926;2022-09-09T11:12:48;100525.03;;;21.88;65.20
43824;BME280;29470;53.550;9.926;2022-09-09T11:17:56;100524.22;;;21.91;66.10
43824;BME280;29470;53.550;9.926;2022-09-09T11:23:03;100524.69;;;22.17;63.86
43824;BME280;29470;53.550;9.926;2022-09-09T11:28:19;100528.31;;;22.73;62.77
43824;BME280;29470;53.550;9.926;2022-09-09T11:33:54;100526.00;;;22.95;61.05
43824;BME280;29470;53.550;9.926;2022-09-09T11:39:04;100538.84;;;23.33;58.84
43824;BME280;29470;53.550;9.926;2022-09-09T11:44:17;100540.25;;;23.09;60.44
43824;BME280;29470;53.550;9.926;2022-09-09T11:49:26;100541.94;;;22.47;61.61
43824;BME280;29470;53.550;9.926;2022-09-09T11:54:32;100535.88;;;22.53;63.41
43824;BME280;29470;53.550;9.926;2022-09-09T11:59:37;100533.91;;;22.41;62.10
43824;BME280;29470;53.550;9.926;2022-09-09T12:04:42;100532.72;;;22.25;63.89
43824;BME280;29470;53.550;9.926;2022-09-09T12:09:49;100525.13;;;21.93;64.12
43824;BME280;29470;53.550;9.926;2022-09-09T12:20:19;100529.81;;;21.63;68.87
43824;BME280;29470;53.550;9.926;2022-09-09T12:25:46;100526.13;;;21.57;67.66
43824;BME280;29470;53.550;9.926;2022-09-09T12:30:56;100525.88;;;21.86;66.54
43824;BME280;29470;53.550;9.926;2022-09-09T12:36:03;100523.47;;;21.98;65.39
43824;BME280;29470;53.550;9.926;2022-09-09T12:41:18;100521.16;;;22.15;64.54
43824;BME280;29470;53.550;9.926;2022-09-09T12:46:38;100519.75;;;21.87;66.91
43824;BME280;29470;53.550;9.926;2022-09-09T12:51:46;100523.59;;;21.61;68.26
43824;BME280;29470;53.550;9.926;2022-09-09T12:57:04;100518.66;;;21.36;70.40
43824;BME280;29470;53.550;9.926;2022-09-09T13:02:29;100528.97;;;20.86;72.34
43824;BME280;29470;53.550;9.926;2022-09-09T13:07:41;100535.50;;;20.32;76.95
43824;BME280;29470;53.550;9.926;2022-09-09T13:12:50;100524.56;;;20.15;79.17
43824;BME280;29470;53.550;9.926;2022-09-09T13:18:06;100551.94;;;19.93;81.76
43824;BME280;29470;53.550;9.926;2022-09-09T13:23:14;100569.25;;;19.26;87.02
43824;BME280;29470;53.550;9.926;2022-09-09T13:28:23;100577.28;;;18.52;91.92
43824;BME280;29470;53.550;9.926;2022-09-09T13:33:32;100583.72;;;17.87;95.98
43824;BME280;29470;53.550;9.926;2022-09-09T13:38:38;100594.28;;;17.66;97.58
43824;BME280;29470;53.550;9.926;2022-09-09T13:43:43;100592.91;;;17.53;97.58
43824;BME280;29470;53.550;9.926;2022-09-09T13:48:55;100590.25;;;17.51;98.73
43824;BME280;29470;53.550;9.926;2022-09-09T13:53:58;100589.75;;;17.62;100.00
43824;BME280;29470;53.550;9.926;2022-09-09T13:59:03;100580.88;;;17.81;100.00
43824;BME280;29470;53.550;9.926;2022-09-09T14:04:12;100569.91;;;17.91;100.00
43824;BME280;29470;53.550;9.926;2022-09-09T14:09:17;100568.97;;;17.89;100.00
43824;BME280;29470;53.550;9.926;2022-09-09T14:14:20;100567.78;;;18.04;100.00
43824;BME280;29470;53.550;9.926;2022-09-09T14:19:26;100562.53;;;18.04;100.00
43824;BME280;29470;53.550;9.926;2022-09-09T14:24:29;100567.25;;;18.14;100.00
43824;BME280;29470;53.550;9.926;2022-09-09T14:29:32;100560.53;;;17.98;100.00
43824;BME280;29470;53.550;9.926;2022-09-09T14:34:36;100555.44;;;18.01;100.00
43824;BME280;29470;53.550;9.926;2022-09-09T14:39:39;100550.75;;;17.92;99.83
43824;BME280;29470;53.550;9.926;2022-09-09T14:44:45;100547.13;;;17.89;97.56
43824;BME280;29470;53.550;9.926;2022-09-09T14:49:50;100554.97;;;17.89;96.88
43824;BME280;29470;53.550;9.926;2022-09-09T14:54:53;100557.44;;;17.84;96.27
43824;BME280;29470;53.550;9.926;2022-09-09T14:59:56;100556.94;;;17.94;97.56
43824;BME280;29470;53.550;9.926;2022-09-09T15:05:01;100564.94;;;17.99;97.40
43824;BME280;29470;53.550;9.926;2022-09-09T15:10:05;100562.53;;;18.04;96.93
43824;BME280;29470;53.550;9.926;2022-09-09T15:15:09;100569.44;;;18.02;96.35
43824;BME280;29470;53.550;9.926;2022-09-09T15:20:14;100566.50;;;17.94;95.93
43824;BME280;29470;53.550;9.926;2022-09-09T15:25:18;100575.41;;;17.99;97.45
43824;BME280;29470;53.550;9.926;2022-09-09T15:30:21;100565.88;;;18.00;93.91
43824;BME280;29470;53.550;9.926;2022-09-09T15:35:25;100561.41;;;18.21;93.36
43824;BME280;29470;53.550;9.926;2022-09-09T15:40:27;100561.94;;;18.37;94.02
43824;BME280;29470;53.550;9.926;2022-09-09T15:45:32;100563.56;;;18.33;90.67
43824;BME280;29470;53.550;9.926;2022-09-09T15:50:36;100559.56;;;18.45;91.08
43824;BME280;29470;53.550;9.926;2022-09-09T15:55:39;100560.59;;;18.48;87.48
43824;BME280;29470;53.550;9.926;2022-09-09T16:00:45;100549.19;;;18.46;86.88
43824;BME280;29470;53.550;9.926;2022-09-09T16:05:52;100550.25;;;18.53;86.76
43824;BME280;29470;53.550;9.926;2022-09-09T16:10:55;100549.75;;;18.65;86.71
43824;BME280;29470;53.550;9.926;2022-09-09T16:15:57;100550.38;;;18.56;85.25
43824;BME280;29470;53.550;9.926;2022-09-09T16:21:02;100545.97;;;18.55;86.12
43824;BME280;29470;53.550;9.926;2022-09-09T16:26:06;100534.84;;;18.36;85.93
43824;BME280;29470;53.550;9.926;2022-09-09T16:31:11;100529.47;;;18.32;87.94
43824;BME280;29470;53.550;9.926;2022-09-09T16:36:19;100533.38;;;18.19;87.08
43824;BME280;29470;53.550;9.926;2022-09-09T16:41:22;100531.06;;;18.02;88.67
43824;BME280;29470;53.550;9.926;2022-09-09T16:46:27;100548.06;;;17.91;88.19
43824;BME280;29470;53.550;9.926;2022-09-09T16:51:33;100550.56;;;17.88;89.78
43824;BME280;29470;53.550;9.926;2022-09-09T16:56:38;100544.59;;;17.66;90.21
43824;BME280;29470;53.550;9.926;2022-09-09T17:01:44;100552.47;;;17.67;90.31
43824;BME280;29470;53.550;9.926;2022-09-09T17:06:50;100553.97;;;17.61;90.91
43824;BME280;29470;53.550;9.926;2022-09-09T17:11:53;100555.19;;;17.46;92.32
43824;BME280;29470;53.550;9.926;2022-09-09T17:16:56;100554.00;;;17.38;92.66
43824;BME280;29470;53.550;9.926;2022-09-09T17:22:20;100539.63;;;17.27;93.78
43824;BME280;29470;53.550;9.926;2022-09-09T17:27:24;100542.59;;;17.13;96.21
43824;BME280;29470;53.550;9.926;2022-09-09T17:32:27;100544.44;;;16.94;99.84
43824;BME280;29470;53.550;9.926;2022-09-09T17:37:31;100549.03;;;16.79;100.00
43824;BME280;29470;53.550;9.926;2022-09-09T17:42:34;100559.34;;;16.76;100.00
43824;BME280;29470;53.550;9.926;2022-09-09T17:47:37;100571.06;;;16.64;100.00
43824;BME280;29470;53.550;9.926;2022-09-09T17:52:42;100573.03;;;16.49;100.00
43824;BME280;29470;53.550;9.926;2022-09-09T17:57:45;100571.94;;;16.44;100.00
43824;BME280;29470;53.550;9.926;2022-09-09T18:02:48;100583.59;;;16.52;100.00
43824;BME280;29470;53.550;9.926;2022-09-09T18:07:52;100586.72;;;16.43;100.00
43824;BME280;29470;53.550;9.926;2022-09-09T18:12:55;100591.69;;;16.37;100.00
43824;BME280;29470;53.550;9.926;2022-09-09T18:17:58;100598.69;;;16.38;100.00
43824;BME280;29470;53.550;9.926;2022-09-09T18:23:08;100601.44;;;16.41;100.00
43824;BME280;29470;53.550;9.926;2022-09-09T18:28:11;100600.75;;;16.45;100.00
43824;BME280;29470;53.550;9.926;2022-09-09T18:33:14;100596.75;;;16.54;100.00
43824;BME280;29470;53.550;9.926;2022-09-09T18:38:18;100591.38;;;16.51;100.00
43824;BME280;29470;53.550;9.926;2022-09-09T18:43:21;100600.88;;;16.70;100.00
43824;BME280;29470;53.550;9.926;2022-09-09T18:48:24;100598.91;;;16.85;100.00
43824;BME280;29470;53.550;9.926;2022-09-09T18:53:28;100605.00;;;16.86;100.00
43824;BME280;29470;53.550;9.926;2022-09-09T18:58:32;100605.72;;;16.82;100.00
43824;BME280;29470;53.550;9.926;2022-09-09T19:03:39;100602.59;;;16.90;100.00
43824;BME280;29470;53.550;9.926;2022-09-09T19:08:45;100609.41;;;16.87;100.00
43824;BME280;29470;53.550;9.926;2022-09-09T19:13:55;100597.41;;;16.92;100.00
43824;BME280;29470;53.550;9.926;2022-09-09T19:18:59;100600.47;;;16.82;100.00
43824;BME280;29470;53.550;9.926;2022-09-09T19:24:06;100605.72;;;16.82;100.00
43824;BME280;29470;53.550;9.926;2022-09-09T19:29:12;100597.38;;;16.69;100.00
43824;BME280;29470;53.550;9.926;2022-09-09T19:34:17;100609.28;;;16.62;100.00
43824;BME280;29470;53.550;9.926;2022-09-09T19:39:22;100602.97;;;16.57;100.00
43824;BME280;29470;53.550;9.926;2022-09-09T19:44:25;100619.06;;;16.47;100.00
43824;BME280;29470;53.550;9.926;2022-09-09T19:49:28;100615.22;;;16.39;100.00
43824;BME280;29470;53.550;9.926;2022-09-09T19:54:33;100619.00;;;16.45;100.00
43824;BME280;29470;53.550;9.926;2022-09-09T19:59:36;100620.44;;;16.39;100.00
43824;BME280;29470;53.550;9.926;2022-09-09T20:04:39;100614.75;;;16.47;100.00
43824;BME280;29470;53.550;9.926;2022-09-09T20:09:43;100622.88;;;16.34;100.00
43824;BME280;29470;53.550;9.926;2022-09-09T20:14:46;100647.72;;;16.26;100.00
43824;BME280;29470;53.550;9.926;2022-09-09T20:19:49;100645.31;;;16.30;100.00
43824;BME280;29470;53.550;9.926;2022-09-09T20:24:53;100631.84;;;16.41;100.00
43824;BME280;29470;53.550;9.926;2022-09-09T20:29:56;100625.63;;;16.37;100.00
43824;BME280;29470;53.550;9.926;2022-09-09T20:34:59;100633.63;;;16.42;100.00
43824;BME280;29470;53.550;9.926;2022-09-09T20:40:04;100635.13;;;16.56;100.00
43824;BME280;29470;53.550;9.926;2022-09-09T20:45:08;100633.84;;;16.46;100.00
43824;BME280;29470;53.550;9.926;2022-09-09T20:50:16;100656.38;;;16.44;100.00
43824;BME280;29470;53.550;9.926;2022-09-09T20:55:20;100659.47;;;16.35;100.00
43824;BME280;29470;53.550;9.926;2022-09-09T21:00:23;100660.00;;;16.28;100.00
43824;BME280;29470;53.550;9.926;2022-09-09T21:05:26;100671.22;;;16.26;100.00
43824;BME280;29470;53.550;9.926;2022-09-09T21:10:31;100682.41;;;16.23;100.00
43824;BME280;29470;53.550;9.926;2022-09-09T21:15:35;100678.13;;;16.25;100.00
43824;BME280;29470;53.550;9.926;2022-09-09T21:20:38;100669.72;;;16.31;100.00
43824;BME280;29470;53.550;9.926;2022-09-09T21:25:45;100661.25;;;16.37;100.00
43824;BME280;29470;53.550;9.926;2022-09-09T21:30:51;100656.38;;;16.44;100.00
43824;BME280;29470;53.550;9.926;2022-09-09T21:36:01;100656.78;;;16.34;100.00
43824;BME280;29470;53.550;9.926;2022-09-09T21:41:07;100660.00;;;16.28;100.00
43824;BME280;29470;53.550;9.926;2022-09-09T21:46:12;100650.81;;;16.37;100.00
43824;BME280;29470;53.550;9.926;2022-09-09T21:51:16;100649.00;;;16.35;100.00
43824;BME280;29470;53.550;9.926;2022-09-09T21:56:21;100642.63;;;16.48;100.00
43824;BME280;29470;53.550;9.926;2022-09-09T22:01:24;100644.28;;;16.46;100.00
43824;BME280;29470;53.550;9.926;2022-09-09T22:06:27;100644.63;;;16.34;100.00
43824;BME280;29470;53.550;9.926;2022-09-09T22:11:31;100634.75;;;16.27;100.00
43824;BME280;29470;53.550;9.926;2022-09-09T22:16:35;100639.28;;;16.12;100.00
43824;BME280;29470;53.550;9.926;2022-09-09T22:21:38;100636.03;;;15.98;100.00
43824;BME280;29470;53.550;9.926;2022-09-09T22:26:42;100617.16;;;15.84;100.00
43824;BME280;29470;53.550;9.926;2022-09-09T22:31:45;100638.22;;;15.88;100.00
43824;BME280;29470;53.550;9.926;2022-09-09T22:36:48;100637.41;;;15.89;100.00
43824;BME280;29470;53.550;9.926;2022-09-09T22:41:52;100644.19;;;15.86;100.00
43824;BME280;29470;53.550;9.926;2022-09-09T22:46:56;100645.44;;;15.94;100.00
43824;BME280;29470;53.550;9.926;2022-09-09T22:51:59;100657.94;;;16.01;100.00
43824;BME280;29470;53.550;9.926;2022-09-09T22:57:03;100656.16;;;16.00;100.00
43824;BME280;29470;53.550;9.926;2022-09-09T23:02:06;100660.50;;;16.00;100.00
43824;BME280;29470;53.550;9.926;2022-09-09T23:07:10;100654.91;;;15.92;100.00
43824;BME280;29470;53.550;9.926;2022-09-09T23:12:14;100660.13;;;15.92;100.00
43824;BME280;29470;53.550;9.926;2022-09-09T23:17:21;100651.75;;;15.99;100.00
43824;BME280;29470;53.550;9.926;2022-09-09T23:22:24;100653.53;;;16.00;100.00
43824;BME280;29470;53.550;9.926;2022-09-09T23:27:28;100657.78;;;15.98;100.00
43824;BME280;29470;53.550;9.926;2022-09-09T23:32:32;100646.47;;;15.98;100.00
43824;BME280;29470;53.550;9.926;2022-09-09T23:37:35;100650.91;;;15.81;100.00
43824;BME280;29470;53.550;9.926;2022-09-09T23:42:39;100645.31;;;15.73;100.00
43824;BME280;29470;53.550;9.926;2022-09-09T23:47:42;100642.50;;;15.68;100.00
43824;BME280;29470;53.550;9.926;2022-09-09T23:52:44;100651.34;;;15.72;100.00
43824;BME280;29470;53.550;9.926;2022-09-09T23:57:49;100641.50;;;15.84;100.00
